Other Surface Observations
Issued by NWS Great Falls, MT

Home | Current Version | Previous Version | Text Only | Print | Product List | Glossary On
Versions: 1 2 3 4 5 6 7 8 9 10 11 12 13 14 15 16 17 18 19 20 21 22 23 24 25 26 27 28 29 30 31 32 33 34 35 36 37 38 39 40 41 42 43 44 45 46 47 48 49 50
000
SXUS55 KTFX 250102
OSOTFX

AREA AWOS OBSERVATIONS
NATIONAL WEATHER SERVICE GREAT FALLS MT
0603 PM MDT Sat Jun 24 2017

METAR K9S5 242355Z AUTO 34005KT 40SM 24/03 A3023 RMK A01 T02440033
METAR KRPX 242355Z AUTO 35006KT 40SM 21/01 A3020 RMK A01 T02050005



USA.gov is the U.S. government's official web portal to all federal, state and local government web resources and services.